Admire, KS (66830)

12:05 PM CST on March 06, 2015 (GMT -0600)
Timmerman School Area | Change Station
CLOSE
Current Station
Personal Weather Station
Location: Emporia, KS
Elevation: 1214 ft
Nearby Weather Stations

Elev 1214 ft 38.43 °N, 96.22 °W | Updated 2 seconds ago

Clear
Clear
51.4 °F
Feels Like 51.4 °F
N
10.3
Wind Variable Wind from SW
Gusts 12.3 mph

Today
High -- | Low -- °F
--% Chance of Precip.
Yesterday
High -- | Low -- °F
Precip. -- in
6:49 AM 6:22 PM
Full, 99% visible
Pressure 30.35 in
Visibility 10.0 miles
Clouds Clear
Dew Point 29 °F
Humidity 41%
Rainfall in
Snow Depth Not available.
UV 6 out of 12
Pollen 3.50 out of 12
Air Quality Not available.
Flu Activity Not available.
METAR KEMP 061753Z AUTO 23013G18KT 10SM CLR 11/M02 A3032 RMK AO2 SLP278 T01111022 10111 21022 58006

More Conditions Fewer Conditions

Pressure 30.35 in
Visibility 10.0 miles
Clouds Clear
Dew Point 29 °F
Humidity 41%
Rainfall in
Snow Depth Not available.
UV 6 out of 12
Pollen 3.50 out of 12
Air Quality Not available.
Flu Activity Not available.
METAR KEMP 061753Z AUTO 23013G18KT 10SM CLR 11/M02 A3032 RMK AO2 SLP278 T01111022 10111 21022 58006

More Conditions Fewer Conditions

10-Day Weather Forecast

Almanac

Astronomy

Mar. 06, 2015 Rise Set
Actual Time
Civil Twilight
Nautical Twilight
Astronomical Twilight
Moon
Length of Visible Light
Length of Day
Tomorrow will be .
, % of the Moon is Illuminated

Today's Extremes

State Highs State Lows

Community

WunderPhotos

Upload Photos

1,803,357 photos uploaded!

WunderBlogs® & News

Nearby

Air Quality

  Air Quality AQ Index Pollutant
Not available.

Snow Depth

Station Depth Elevation

Earthquake Activity

City Distance Mag. Time & Date
Minimum magnitude displayed is 2.5.

Coastal Water Temperatures

Place Temperature

Nearby Weather Stations